createdAt,value
2018-03-22T00:01:02.822Z,3.80
2018-03-22T00:03:32.550Z,4.60
2018-03-22T00:06:02.250Z,4.87
2018-03-22T00:08:31.700Z,5.20
2018-03-22T00:11:01.460Z,4.53
2018-03-22T00:13:31.245Z,5.00
2018-03-22T00:16:07.026Z,4.93
2018-03-22T00:18:36.949Z,4.60
2018-03-22T00:21:06.936Z,4.87
2018-03-22T00:23:39.630Z,4.97
2018-03-22T00:26:09.072Z,5.80
2018-03-22T00:28:39.262Z,5.50
2018-03-22T00:31:08.970Z,5.03
2018-03-22T00:33:38.626Z,4.75
2018-03-22T00:36:08.575Z,4.57
2018-03-22T00:38:38.477Z,4.18
2018-03-22T00:41:07.890Z,3.70
2018-03-22T00:43:37.325Z,4.75
2018-03-22T00:46:07.254Z,5.10
2018-03-22T00:48:44.929Z,4.65
2018-03-22T00:51:14.359Z,4.70
2018-03-22T00:53:43.986Z,4.85
2018-03-22T00:56:17.296Z,4.12
2018-03-22T00:58:46.837Z,5.62
2018-03-22T01:01:16.341Z,4.37
2018-03-22T01:03:46.089Z,4.47
2018-03-22T01:06:15.812Z,5.25
2018-03-22T01:08:46.659Z,4.45
2018-03-22T01:11:16.825Z,4.18
2018-03-22T01:13:46.248Z,4.78
2018-03-22T01:16:17.033Z,3.72
2018-03-22T01:18:47.171Z,4.25
2018-03-22T01:21:17.126Z,4.20
2018-03-22T01:23:47.224Z,3.35
2018-03-22T01:26:17.280Z,3.80
2018-03-22T01:28:47.128Z,3.90
2018-03-22T01:31:17.280Z,4.43
2018-03-22T01:33:47.497Z,3.95
2018-03-22T01:36:16.937Z,3.42
2018-03-22T01:38:46.571Z,4.10
2018-03-22T01:41:16.425Z,3.67
2018-03-22T01:43:46.405Z,4.03
2018-03-22T01:46:15.837Z,4.30
2018-03-22T01:48:45.644Z,4.00
2018-03-22T01:51:15.066Z,3.95
2018-03-22T01:53:45.234Z,4.07
2018-03-22T01:56:14.648Z,4.90
2018-03-22T01:58:44.438Z,4.90
2018-03-22T02:01:14.145Z,3.50
2018-03-22T02:03:43.860Z,3.90
2018-03-22T02:06:13.285Z,3.58
2018-03-22T02:08:43.008Z,4.05
2018-03-22T02:11:12.992Z,4.28
2018-03-22T02:13:42.415Z,4.50
2018-03-22T02:16:11.988Z,3.75
2018-03-22T02:18:41.447Z,3.55
2018-03-22T02:21:11.209Z,4.32
2018-03-22T02:23:45.273Z,4.40
2018-03-22T02:26:14.956Z,4.10
2018-03-22T02:28:44.823Z,4.40
2018-03-22T02:31:16.449Z,4.47
2018-03-22T02:33:45.883Z,5.12
2018-03-22T02:36:15.307Z,4.20
2018-03-22T02:38:44.897Z,3.05
2018-03-22T02:41:14.617Z,5.00
2018-03-22T02:43:44.855Z,4.62
2018-03-22T02:46:15.150Z,4.00
2018-03-22T02:48:47.630Z,4.07
2018-03-22T02:51:17.542Z,4.05
2018-03-22T02:53:47.470Z,3.87
2018-03-22T02:56:17.376Z,6.32
2018-03-22T02:58:46.909Z,3.85
2018-03-22T03:01:16.337Z,4.75
2018-03-22T03:03:45.967Z,3.95
2018-03-22T03:06:15.381Z,4.20
2018-03-22T03:08:44.885Z,5.22
2018-03-22T03:11:14.396Z,4.45
2018-03-22T03:13:44.140Z,4.80
2018-03-22T03:16:14.053Z,5.00
2018-03-22T03:18:43.468Z,3.97
2018-03-22T03:21:13.673Z,4.43
2018-03-22T03:23:44.611Z,3.90
2018-03-22T03:26:14.034Z,3.60
2018-03-22T03:28:43.457Z,4.32
2018-03-22T03:31:13.158Z,5.55
2018-03-22T03:33:42.576Z,4.45
2018-03-22T03:36:12.026Z,4.80
2018-03-22T03:38:41.549Z,4.75
2018-03-22T03:41:10.975Z,5.37
2018-03-22T03:43:40.864Z,3.35
2018-03-22T03:46:10.288Z,4.15
2018-03-22T03:48:39.721Z,4.60
2018-03-22T03:51:09.398Z,4.62
2018-03-22T03:53:39.326Z,4.25
2018-03-22T03:56:08.894Z,3.87
2018-03-22T03:58:38.622Z,5.07
2018-03-22T04:01:09.041Z,4.78
2018-03-22T04:03:38.956Z,3.83
2018-03-22T04:06:08.385Z,4.43
2018-03-22T04:08:37.814Z,5.10
2018-03-22T04:11:07.268Z,4.50
2018-03-22T04:13:37.513Z,4.57
2018-03-22T04:16:07.005Z,4.25
2018-03-22T04:18:36.693Z,4.32
2018-03-22T04:21:06.326Z,4.53
2018-03-22T04:23:35.749Z,3.92
2018-03-22T04:26:05.349Z,5.15
2018-03-22T04:28:35.034Z,4.60
2018-03-22T04:31:04.450Z,4.57
2018-03-22T04:33:33.872Z,5.07
2018-03-22T04:36:03.321Z,4.00
2018-03-22T04:38:32.847Z,3.60
2018-03-22T04:41:02.281Z,4.82
2018-03-22T04:43:31.900Z,4.82
2018-03-22T04:46:01.802Z,5.45
2018-03-22T04:48:31.582Z,5.12
2018-03-22T04:51:01.439Z,5.03
2018-03-22T04:53:37.719Z,4.45
2018-03-22T04:56:07.797Z,4.10
2018-03-22T04:58:37.337Z,4.62
2018-03-22T05:01:06.755Z,5.20
2018-03-22T05:03:36.506Z,5.40
2018-03-22T05:06:05.932Z,4.82
2018-03-22T05:08:35.355Z,4.95
2018-03-22T05:11:04.804Z,4.53
2018-03-22T05:13:34.228Z,3.90
2018-03-22T05:16:04.665Z,4.62
2018-03-22T05:18:34.785Z,4.20
2018-03-22T05:21:05.016Z,4.75
2018-03-22T05:23:34.466Z,4.90
2018-03-22T05:26:04.339Z,6.15
2018-03-22T05:28:33.760Z,4.53
2018-03-22T05:31:03.753Z,5.10
2018-03-22T05:33:33.249Z,5.25
2018-03-22T05:36:02.668Z,4.43
2018-03-22T05:38:32.089Z,4.47
2018-03-22T05:41:01.545Z,4.50
2018-03-22T05:43:30.976Z,5.37
2018-03-22T05:46:00.348Z,5.10
2018-03-22T05:48:28.549Z,4.32
2018-03-22T05:50:57.537Z,5.62
2018-03-22T05:53:29.690Z,4.82
2018-03-22T05:55:58.779Z,4.78
2018-03-22T05:58:27.388Z,4.93
2018-03-22T06:00:56.168Z,3.92
2018-03-22T06:03:25.474Z,4.68
2018-03-22T06:05:56.633Z,4.95
2018-03-22T06:08:25.006Z,5.00
2018-03-22T06:10:54.100Z,4.68
2018-03-22T06:13:22.321Z,5.40
2018-03-22T06:15:51.570Z,6.10
2018-03-22T06:18:21.950Z,5.85
2018-03-22T06:20:50.579Z,5.22
2018-03-22T06:23:20.301Z,4.70
2018-03-22T06:25:50.125Z,5.25
2018-03-22T06:28:18.731Z,5.60
2018-03-22T06:30:47.462Z,4.47
2018-03-22T06:33:17.725Z,4.95
2018-03-22T06:35:46.933Z,4.43
2018-03-22T06:38:15.157Z,5.37
2018-03-22T06:40:44.872Z,5.53
2018-03-22T06:43:13.086Z,4.57
2018-03-22T06:45:42.850Z,4.70
2018-03-22T06:48:12.390Z,4.97
2018-03-22T06:50:42.728Z,5.15
2018-03-22T06:53:12.439Z,4.55
2018-03-22T06:55:42.395Z,5.70
2018-03-22T06:58:12.288Z,4.87
2018-03-22T07:00:41.744Z,4.87
2018-03-22T07:03:14.578Z,5.30
2018-03-22T07:05:44.659Z,5.25
2018-03-22T07:08:14.079Z,5.75
2018-03-22T07:10:44.009Z,5.10
2018-03-22T07:13:13.448Z,4.40
2018-03-22T07:15:42.878Z,5.90
2018-03-22T07:18:12.815Z,5.03
2018-03-22T07:20:42.620Z,4.93
2018-03-22T07:23:12.048Z,5.12
2018-03-22T07:25:41.736Z,4.93
2018-03-22T07:28:11.462Z,5.93
2018-03-22T07:30:40.884Z,5.40
2018-03-22T07:33:10.324Z,5.03
2018-03-22T07:35:40.177Z,5.85
2018-03-22T07:38:09.614Z,5.82
2018-03-22T07:40:39.041Z,5.72
2018-03-22T07:43:15.668Z,4.93
2018-03-22T07:45:45.800Z,5.12
2018-03-22T07:48:15.765Z,4.95
2018-03-22T07:50:45.826Z,5.10
2018-03-22T07:53:15.535Z,6.15
2018-03-22T07:55:46.009Z,5.85
2018-03-22T07:58:15.997Z,5.78
2018-03-22T08:00:45.816Z,5.07
2018-03-22T08:03:17.457Z,5.93
2018-03-22T08:05:47.450Z,5.20
2018-03-22T08:08:17.288Z,4.53
2018-03-22T08:10:46.713Z,6.37
2018-03-22T08:13:16.145Z,4.70
2018-03-22T08:15:45.599Z,4.90
2018-03-22T08:18:15.328Z,4.87
2018-03-22T08:20:45.115Z,5.30
2018-03-22T08:23:14.554Z,4.97
2018-03-22T08:25:44.427Z,4.67
2018-03-22T08:28:14.001Z,5.97
2018-03-22T08:30:43.429Z,5.30
2018-03-22T08:33:12.880Z,4.77
2018-03-22T08:35:42.868Z,4.70
2018-03-22T08:38:12.297Z,5.97
2018-03-22T08:40:42.054Z,5.93
2018-03-22T08:43:11.822Z,5.23
2018-03-22T08:45:42.324Z,5.47
2018-03-22T08:48:11.782Z,5.10
2018-03-22T08:50:41.757Z,5.10
2018-03-22T08:53:11.463Z,5.57
2018-03-22T08:55:41.180Z,5.23
2018-03-22T08:58:11.286Z,5.13
2018-03-22T09:00:40.717Z,5.40
2018-03-22T09:03:14.608Z,5.63
2018-03-22T09:05:44.116Z,4.60
2018-03-22T09:08:14.100Z,4.60
2018-03-22T09:10:43.742Z,4.80
2018-03-22T09:13:13.459Z,4.70
2018-03-22T09:15:43.369Z,3.90
2018-03-22T09:18:12.860Z,4.80
2018-03-22T09:20:42.809Z,4.97
2018-03-22T09:23:12.529Z,4.50
2018-03-22T09:25:42.413Z,4.47
2018-03-22T09:28:12.174Z,4.60
2018-03-22T09:30:41.583Z,5.20
2018-03-22T09:33:10.996Z,4.17
2018-03-22T09:35:40.440Z,4.27
2018-03-22T09:38:09.866Z,4.47
2018-03-22T09:40:40.060Z,4.40
2018-03-22T09:43:09.481Z,4.03
2018-03-22T09:45:39.362Z,5.30
2018-03-22T09:48:08.797Z,4.73
2018-03-22T09:50:38.805Z,4.40
2018-03-22T09:53:09.128Z,5.10
2018-03-22T09:55:39.264Z,4.97
2018-03-22T09:58:08.985Z,4.67
2018-03-22T10:00:38.825Z,6.10
2018-03-22T10:03:08.269Z,4.67
2018-03-22T10:05:38.296Z,4.57
2018-03-22T10:08:08.637Z,4.80
2018-03-22T10:10:38.044Z,4.83
2018-03-22T10:13:08.036Z,4.60
2018-03-22T10:15:37.453Z,4.83
2018-03-22T10:18:06.902Z,4.60
2018-03-22T10:20:36.802Z,4.80
2018-03-22T10:23:06.234Z,4.80
2018-03-22T10:25:36.186Z,4.20
2018-03-22T10:28:06.103Z,4.30
2018-03-22T10:30:35.941Z,4.80
2018-03-22T10:33:05.502Z,4.90
2018-03-22T10:35:34.924Z,4.50
2018-03-22T10:38:05.268Z,4.37
2018-03-22T10:40:34.708Z,4.87
2018-03-22T10:43:04.154Z,4.30
2018-03-22T10:45:33.685Z,5.10
2018-03-22T10:48:03.639Z,4.97
2018-03-22T10:50:33.518Z,5.10
2018-03-22T10:53:03.315Z,4.20
2018-03-22T10:55:32.862Z,5.70
2018-03-22T10:58:02.735Z,4.10
2018-03-22T11:00:37.494Z,5.10
2018-03-22T11:03:12.786Z,5.93
2018-03-22T11:05:42.607Z,5.30
2018-03-22T11:08:12.649Z,5.30
2018-03-22T11:10:42.912Z,4.50
2018-03-22T11:13:12.568Z,5.43
2018-03-22T11:15:42.094Z,5.33
2018-03-22T11:18:12.205Z,5.40
2018-03-22T11:20:41.885Z,5.07
2018-03-22T11:23:11.321Z,4.57
2018-03-22T11:25:40.942Z,4.37
2018-03-22T11:28:10.529Z,4.90
2018-03-22T11:30:39.977Z,4.60
2018-03-22T11:33:09.685Z,4.90
2018-03-22T11:35:39.210Z,4.80
2018-03-22T11:38:08.653Z,6.07
2018-03-22T11:40:38.592Z,6.03
2018-03-22T11:43:08.476Z,4.83
2018-03-22T11:45:37.905Z,5.50
2018-03-22T11:48:07.343Z,5.00
2018-03-22T11:50:37.220Z,6.90
2018-03-22T11:53:07.332Z,5.47
2018-03-22T11:55:36.905Z,6.00
2018-03-22T11:58:06.802Z,4.67
2018-03-22T12:00:36.194Z,5.77
2018-03-22T12:03:05.658Z,5.80
2018-03-22T12:05:35.265Z,5.80
2018-03-22T12:08:05.203Z,5.43
2018-03-22T12:10:35.152Z,5.67
2018-03-22T12:13:04.703Z,5.83
2018-03-22T12:15:34.328Z,7.03
2018-03-22T12:18:03.923Z,6.93
2018-03-22T12:20:34.405Z,7.73
2018-03-22T12:23:03.851Z,8.03
2018-03-22T12:25:33.572Z,7.10
2018-03-22T12:28:03.593Z,9.13
2018-03-22T12:30:37.605Z,7.70
2018-03-22T12:33:07.071Z,8.00
2018-03-22T12:35:36.504Z,9.30
2018-03-22T12:38:06.025Z,10.20
2018-03-22T12:40:35.463Z,9.00
2018-03-22T12:43:05.540Z,9.60
2018-03-22T12:45:34.969Z,10.60
2018-03-22T12:48:04.421Z,8.80
2018-03-22T12:50:33.929Z,9.60
2018-03-22T12:53:03.657Z,9.80
2018-03-22T12:55:33.573Z,9.60
2018-03-22T12:58:03.369Z,10.97
2018-03-22T13:00:33.237Z,11.07
2018-03-22T13:03:02.922Z,9.50
2018-03-22T13:05:32.867Z,10.93
2018-03-22T13:08:03.470Z,10.63
2018-03-22T13:10:32.901Z,11.93
2018-03-22T13:13:02.944Z,9.80
2018-03-22T13:15:32.361Z,10.67
2018-03-22T13:18:01.797Z,12.20
2018-03-22T13:20:31.443Z,11.90
2018-03-22T13:23:01.547Z,10.00
2018-03-22T13:25:31.449Z,10.87
2018-03-22T13:28:01.137Z,11.57
2018-03-22T13:30:30.564Z,11.03
2018-03-22T13:33:00.012Z,10.87
2018-03-22T13:35:29.470Z,9.30
2018-03-22T13:37:58.889Z,9.57
2018-03-22T13:40:28.927Z,8.17
2018-03-22T13:42:58.799Z,8.20
2018-03-22T13:45:29.145Z,9.10
2018-03-22T13:47:58.576Z,8.93
2018-03-22T13:50:28.273Z,8.73
2018-03-22T13:52:57.969Z,9.87
2018-03-22T13:55:27.904Z,10.10
2018-03-22T13:57:57.860Z,10.33
2018-03-22T14:00:27.930Z,11.03
2018-03-22T14:02:57.629Z,12.57
2018-03-22T14:05:27.061Z,10.70
2018-03-22T14:07:56.500Z,12.67
2018-03-22T14:10:25.947Z,11.93
2018-03-22T14:12:55.385Z,12.20
2018-03-22T14:15:25.623Z,16.10
2018-03-22T14:17:55.044Z,14.97
2018-03-22T14:20:25.130Z,14.70
2018-03-22T14:22:54.811Z,13.80
2018-03-22T14:25:24.729Z,13.20
2018-03-22T14:27:54.740Z,15.10
2018-03-22T14:30:24.174Z,15.83
2018-03-22T14:32:53.617Z,14.33
2018-03-22T14:35:23.068Z,14.10
2018-03-22T14:37:52.502Z,13.83
2018-03-22T14:40:21.938Z,16.10
2018-03-22T14:42:51.437Z,16.80
2018-03-22T14:45:21.584Z,13.93
2018-03-22T14:47:51.017Z,15.03
2018-03-22T14:50:20.552Z,16.10
2018-03-22T14:52:50.150Z,16.30
2018-03-22T14:55:19.705Z,14.73
2018-03-22T14:57:49.224Z,15.40
2018-03-22T15:00:19.321Z,16.40
2018-03-22T15:02:49.760Z,14.10
2018-03-22T15:05:19.187Z,15.13
2018-03-22T15:07:48.628Z,15.03
2018-03-22T15:10:18.290Z,16.30
2018-03-22T15:12:48.205Z,15.20
2018-03-22T15:15:17.641Z,14.77
2018-03-22T15:17:47.104Z,15.70
2018-03-22T15:20:23.330Z,17.70
2018-03-22T15:22:52.782Z,15.20
2018-03-22T15:25:22.466Z,15.43
2018-03-22T15:27:54.896Z,17.77
2018-03-22T15:30:24.415Z,16.07
2018-03-22T15:32:53.933Z,14.37
2018-03-22T15:35:23.808Z,17.47
2018-03-22T15:37:53.260Z,14.73
2018-03-22T15:40:22.716Z,15.20
2018-03-22T15:42:52.179Z,15.60
2018-03-22T15:45:21.630Z,14.03
2018-03-22T15:47:51.569Z,16.70
2018-03-22T15:50:21.633Z,16.50
2018-03-22T15:52:51.557Z,16.23
2018-03-22T15:55:21.265Z,16.47
2018-03-22T15:57:51.177Z,16.40
2018-03-22T16:00:30.554Z,16.67
2018-03-22T16:03:00.231Z,17.83
2018-03-22T16:05:29.655Z,16.23
2018-03-22T16:07:59.106Z,16.77
2018-03-22T16:10:28.544Z,15.40
2018-03-22T16:12:57.989Z,16.13
2018-03-22T16:15:27.984Z,16.67
2018-03-22T16:17:57.888Z,17.50
2018-03-22T16:20:27.812Z,19.10
2018-03-22T16:22:57.746Z,16.90
2018-03-22T16:25:27.649Z,16.43
2018-03-22T16:27:57.373Z,16.27
2018-03-22T16:30:26.814Z,17.20
2018-03-22T16:32:56.757Z,15.97
2018-03-22T16:35:26.231Z,15.17
2018-03-22T16:37:55.663Z,14.90
2018-03-22T16:40:25.113Z,15.77
2018-03-22T16:42:54.548Z,17.50
2018-03-22T16:45:23.995Z,15.20
2018-03-22T16:47:54.648Z,15.57
2018-03-22T16:50:24.531Z,17.30
2018-03-22T16:52:54.720Z,16.10
2018-03-22T16:55:24.389Z,19.20
2018-03-22T16:57:54.110Z,17.57
2018-03-22T17:00:24.833Z,17.37
2018-03-22T17:02:54.280Z,17.50
2018-03-22T17:05:23.967Z,17.77
2018-03-22T17:07:53.572Z,16.67
2018-03-22T17:10:23.052Z,16.37
2018-03-22T17:12:52.949Z,16.30
2018-03-22T17:15:22.709Z,15.17
2018-03-22T17:17:52.166Z,15.87
2018-03-22T17:20:21.881Z,17.20
2018-03-22T17:22:51.940Z,15.77
2018-03-22T17:25:21.823Z,16.00
2018-03-22T17:27:55.950Z,16.93
2018-03-22T17:30:25.739Z,16.77
2018-03-22T17:32:59.716Z,15.93
2018-03-22T17:35:29.705Z,17.30
2018-03-22T17:37:59.236Z,17.50
2018-03-22T17:40:28.784Z,15.53
2018-03-22T17:42:58.241Z,16.77
2018-03-22T17:45:27.799Z,18.43
2018-03-22T17:47:57.622Z,17.70
2018-03-22T17:50:27.536Z,17.47
2018-03-22T17:52:57.261Z,17.03
2018-03-22T17:55:27.136Z,18.63
2018-03-22T17:57:57.653Z,20.10
2018-03-22T18:00:27.193Z,19.70
2018-03-22T18:02:57.076Z,19.53
2018-03-22T18:05:26.488Z,18.90
2018-03-22T18:07:55.932Z,18.53
2018-03-22T18:10:25.379Z,16.67
2018-03-22T18:12:54.909Z,17.73
2018-03-22T18:15:24.413Z,20.13
2018-03-22T18:17:53.875Z,18.30
2018-03-22T18:20:23.905Z,16.67
2018-03-22T18:22:53.976Z,16.83
2018-03-22T18:25:24.084Z,18.20
2018-03-22T18:27:57.086Z,19.73
2018-03-22T18:30:26.797Z,16.20
2018-03-22T18:32:56.333Z,18.27
2018-03-22T18:35:26.225Z,18.80
2018-03-22T18:37:55.712Z,20.43
2018-03-22T18:40:27.154Z,17.57
2018-03-22T18:42:56.604Z,17.67
2018-03-22T18:45:26.044Z,18.30
2018-03-22T18:47:55.977Z,17.83
2018-03-22T18:50:26.003Z,19.80
2018-03-22T18:52:56.027Z,21.20
2018-03-22T18:55:25.790Z,18.60
2018-03-22T18:57:56.076Z,21.20
2018-03-22T19:00:26.184Z,19.50
2018-03-22T19:02:56.066Z,18.70
2018-03-22T19:05:25.518Z,20.17
2018-03-22T19:07:54.951Z,18.87
2018-03-22T19:10:24.424Z,20.20
2018-03-22T19:12:53.895Z,19.30
2018-03-22T19:15:23.561Z,18.97
2018-03-22T19:17:59.378Z,19.20
2018-03-22T19:20:29.701Z,20.03
2018-03-22T19:22:59.462Z,19.17
2018-03-22T19:25:29.343Z,19.67
2018-03-22T19:27:59.453Z,17.57
2018-03-22T19:30:29.021Z,16.87
2018-03-22T19:32:58.694Z,18.93
2018-03-22T19:35:28.142Z,17.17
2018-03-22T19:37:57.593Z,20.00
2018-03-22T19:40:27.021Z,18.53
2018-03-22T19:42:56.460Z,20.07
2018-03-22T19:45:25.917Z,16.93
2018-03-22T19:47:55.403Z,19.63
2018-03-22T19:50:25.427Z,17.40
2018-03-22T19:52:54.960Z,18.17
2018-03-22T19:55:24.493Z,18.00
2018-03-22T19:57:54.359Z,20.33
2018-03-22T20:00:28.069Z,17.20
2018-03-22T20:02:57.848Z,17.30
2018-03-22T20:05:28.434Z,17.10
2018-03-22T20:07:57.835Z,17.23
2018-03-22T20:10:27.268Z,15.07
2018-03-22T20:12:57.104Z,16.67
2018-03-22T20:15:26.924Z,16.27
2018-03-22T20:17:56.396Z,16.60
2018-03-22T20:20:26.058Z,15.63
2018-03-22T20:22:55.870Z,16.20
2018-03-22T20:25:25.842Z,17.47
2018-03-22T20:27:59.403Z,15.00
2018-03-22T20:30:29.138Z,16.40
2018-03-22T20:32:58.587Z,14.13
2018-03-22T20:35:28.307Z,17.50
2018-03-22T20:37:57.957Z,17.67
2018-03-22T20:40:27.360Z,18.27
2018-03-22T20:42:57.128Z,19.77
2018-03-22T20:45:26.588Z,19.37
2018-03-22T20:47:56.551Z,18.00
2018-03-22T20:50:26.705Z,19.77
2018-03-22T20:52:56.487Z,18.57
2018-03-22T20:55:26.252Z,18.00
2018-03-22T20:57:57.050Z,19.30
2018-03-22T21:00:33.341Z,20.00
2018-03-22T21:03:03.422Z,18.00
2018-03-22T21:05:32.856Z,19.10
2018-03-22T21:08:02.444Z,19.60
2018-03-22T21:10:31.877Z,18.90
2018-03-22T21:13:01.291Z,17.77
2018-03-22T21:15:30.730Z,17.73
2018-03-22T21:18:00.208Z,18.40
2018-03-22T21:20:29.756Z,17.80
2018-03-22T21:22:59.690Z,17.20
2018-03-22T21:25:29.824Z,15.23
2018-03-22T21:27:59.370Z,18.80
2018-03-22T21:30:29.726Z,18.03
2018-03-22T21:32:59.198Z,20.77
2018-03-22T21:35:28.678Z,19.93
2018-03-22T21:37:58.801Z,18.30
2018-03-22T21:40:28.539Z,19.33
2018-03-22T21:42:58.489Z,17.07
2018-03-22T21:45:28.328Z,18.00
2018-03-22T21:47:57.950Z,17.03
2018-03-22T21:50:33.701Z,17.03
2018-03-22T21:53:03.489Z,17.57
2018-03-22T21:55:33.196Z,15.53
2018-03-22T21:58:03.904Z,17.00
2018-03-22T22:00:33.350Z,17.67
2018-03-22T22:03:03.851Z,16.93
2018-03-22T22:05:33.297Z,17.00
2018-03-22T22:08:02.724Z,16.07
2018-03-22T22:10:32.186Z,16.87
2018-03-22T22:13:01.617Z,17.27
2018-03-22T22:15:31.155Z,15.73
2018-03-22T22:18:00.880Z,15.23
2018-03-22T22:20:30.743Z,16.30
2018-03-22T22:23:00.642Z,18.37
2018-03-22T22:25:30.527Z,17.97
2018-03-22T22:28:00.446Z,17.43
2018-03-22T22:30:30.364Z,17.67
2018-03-22T22:33:00.097Z,16.77
2018-03-22T22:35:29.528Z,17.93
2018-03-22T22:37:58.986Z,17.67
2018-03-22T22:40:28.413Z,18.53
2018-03-22T22:42:58.083Z,18.40
2018-03-22T22:45:27.527Z,17.53
2018-03-22T22:47:56.973Z,18.03
2018-03-22T22:50:27.267Z,20.10
2018-03-22T22:52:57.221Z,17.70
2018-03-22T22:55:27.079Z,17.40
2018-03-22T22:57:56.976Z,19.23
2018-03-22T23:00:27.710Z,16.93
2018-03-22T23:02:57.726Z,17.70
2018-03-22T23:05:27.773Z,17.17
2018-03-22T23:10:12.122Z,17.00
2018-03-22T23:12:40.320Z,16.00
2018-03-22T23:15:08.832Z,15.97
2018-03-22T23:17:37.044Z,16.40
2018-03-22T23:20:05.797Z,18.23
2018-03-22T23:22:33.988Z,17.40
2018-03-22T23:25:03.891Z,17.30
2018-03-22T23:27:32.108Z,16.07
2018-03-22T23:30:00.418Z,16.13
2018-03-22T23:32:28.625Z,14.87
2018-03-22T23:34:56.829Z,17.73
2018-03-22T23:37:25.049Z,17.40
2018-03-22T23:39:53.309Z,17.70
2018-03-22T23:42:21.509Z,15.33
2018-03-22T23:44:49.722Z,17.07
2018-03-22T23:47:17.952Z,16.50
2018-03-22T23:49:46.673Z,16.70
2018-03-22T23:52:16.598Z,17.50
2018-03-22T23:54:46.650Z,18.47
2018-03-22T23:57:14.945Z,19.07
2018-03-22T23:59:43.152Z,18.50
